createdAt,value
2023-04-11T00:00:14.998Z,2.80
2023-04-11T00:02:41.641Z,3.00
2023-04-11T00:05:08.958Z,2.90
2023-04-11T00:07:35.395Z,2.90
2023-04-11T00:10:02.370Z,3.30
2023-04-11T00:12:28.904Z,2.93
2023-04-11T00:14:55.556Z,2.73
2023-04-11T00:17:23.721Z,3.00
2023-04-11T00:19:53.140Z,2.83
2023-04-11T00:22:19.560Z,2.97
2023-04-11T00:24:45.998Z,2.50
2023-04-11T00:27:12.420Z,2.50
2023-04-11T00:29:38.825Z,2.70
2023-04-11T00:32:05.546Z,2.40
2023-04-11T00:34:32.122Z,2.47
2023-04-11T00:36:58.529Z,2.60
2023-04-11T00:39:26.477Z,2.60
2023-04-11T00:41:52.971Z,2.13
2023-04-11T00:44:19.360Z,2.40
2023-04-11T00:46:46.386Z,2.23
2023-04-11T00:49:13.034Z,2.97
2023-04-11T00:51:39.503Z,2.90
2023-04-11T00:54:10.523Z,3.10
2023-04-11T00:56:37.038Z,2.80
2023-04-11T00:59:03.483Z,2.90
2023-04-11T01:01:30.348Z,3.00
2023-04-11T01:03:57.108Z,2.80
2023-04-11T01:06:24.080Z,2.70
2023-04-11T01:08:50.691Z,3.00
2023-04-11T01:11:20.066Z,3.00
2023-04-11T01:13:46.802Z,2.93
2023-04-11T01:16:14.928Z,3.23
2023-04-11T01:18:41.637Z,3.00
2023-04-11T01:21:08.948Z,3.37
2023-04-11T01:23:35.412Z,2.97
2023-04-11T01:26:01.803Z,3.33
2023-04-11T01:28:28.157Z,3.60
2023-04-11T01:30:54.607Z,3.23
2023-04-11T01:35:47.803Z,1.00
2023-04-11T01:38:14.220Z,1.10
2023-04-11T01:40:41.456Z,1.07
2023-04-11T01:43:09.842Z,0.80
2023-04-11T01:45:36.417Z,1.10
2023-04-11T01:48:07.335Z,1.00
2023-04-11T01:50:34.064Z,0.80
2023-04-11T01:53:00.571Z,0.70
2023-04-11T01:55:27.142Z,0.73
2023-04-11T01:57:53.519Z,0.60
2023-04-11T02:00:20.356Z,0.70
2023-04-11T02:02:46.973Z,0.80
2023-04-11T02:05:13.452Z,0.80
2023-04-11T02:07:39.881Z,0.83
2023-04-11T02:10:07.044Z,1.00
2023-04-11T02:12:33.434Z,0.80
2023-04-11T02:14:59.799Z,0.70
2023-04-11T02:17:31.200Z,0.87
2023-04-11T02:19:57.897Z,0.80
2023-04-11T02:22:24.762Z,0.60
2023-04-11T02:24:51.390Z,0.60
2023-04-11T02:27:17.779Z,0.90
2023-04-11T02:29:44.191Z,0.70
2023-04-11T02:32:10.745Z,0.60
2023-04-11T02:34:37.243Z,0.60
2023-04-11T02:37:04.226Z,0.53
2023-04-11T02:39:30.608Z,0.60
2023-04-11T02:41:57.342Z,0.80
2023-04-11T02:44:23.797Z,0.70
2023-04-11T02:46:50.337Z,0.60
2023-04-11T02:49:16.906Z,0.83
2023-04-11T02:51:43.294Z,0.60
2023-04-11T02:54:09.703Z,0.90
2023-04-11T02:56:37.875Z,0.63
2023-04-11T02:59:06.351Z,0.80
2023-04-11T03:01:33.339Z,0.77
2023-04-11T03:03:59.858Z,0.90
2023-04-11T03:06:27.042Z,0.90
2023-04-11T03:08:54.024Z,1.33
2023-04-11T03:11:20.815Z,0.80
2023-04-11T03:13:47.445Z,0.70
2023-04-11T03:16:13.962Z,0.80
2023-04-11T03:18:40.545Z,0.90
2023-04-11T03:21:11.494Z,0.90
2023-04-11T03:23:38.581Z,0.83
2023-04-11T03:26:06.135Z,0.80
2023-04-11T03:28:32.534Z,0.90
2023-04-11T03:30:59.148Z,1.53
2023-04-11T03:33:25.852Z,0.90
2023-04-11T03:35:52.257Z,0.90
2023-04-11T03:38:18.691Z,0.93
2023-04-11T03:40:45.242Z,0.97
2023-04-11T03:43:11.773Z,1.07
2023-04-11T03:45:38.184Z,1.13
2023-04-11T03:48:04.944Z,1.10
2023-04-11T03:50:31.358Z,1.67
2023-04-11T03:52:57.770Z,1.30
2023-04-11T03:55:24.164Z,1.30
2023-04-11T03:57:50.667Z,1.00
2023-04-11T04:00:18.470Z,1.43
2023-04-11T04:02:45.060Z,1.30
2023-04-11T04:05:11.757Z,1.60
2023-04-11T04:07:38.226Z,1.50
2023-04-11T04:10:05.092Z,1.80
2023-04-11T04:12:31.698Z,1.60
2023-04-11T04:14:58.064Z,1.80
2023-04-11T04:17:24.470Z,2.70
2023-04-11T04:19:51.609Z,1.30
2023-04-11T04:22:18.149Z,1.30
2023-04-11T04:24:47.587Z,1.60
2023-04-11T04:27:14.025Z,1.40
2023-04-11T04:29:53.787Z,1.90
2023-04-11T04:32:23.026Z,1.57
2023-04-11T04:34:55.000Z,1.50
2023-04-11T04:37:25.540Z,1.70
2023-04-11T04:39:55.905Z,1.50
2023-04-11T04:42:26.977Z,1.67
2023-04-11T04:44:54.889Z,2.10
2023-04-11T04:47:26.058Z,2.17
2023-04-11T04:49:56.745Z,2.10
2023-04-11T04:52:27.414Z,2.13
2023-04-11T04:54:57.885Z,2.30
2023-04-11T04:57:28.898Z,2.50
2023-04-11T04:59:56.010Z,2.17
2023-04-11T05:02:22.645Z,1.63
2023-04-11T05:04:50.619Z,1.70
2023-04-11T05:07:18.295Z,1.80
2023-04-11T05:09:44.916Z,1.70
2023-04-11T05:12:11.583Z,1.80
2023-04-11T05:14:38.054Z,1.70
2023-04-11T05:17:04.870Z,1.77
2023-04-11T05:19:32.282Z,1.63
2023-04-11T05:21:58.713Z,2.20
2023-04-11T05:24:25.593Z,2.40
2023-04-11T05:26:51.996Z,2.07
2023-04-11T05:29:18.474Z,2.10
2023-04-11T05:31:44.870Z,2.27
2023-04-11T05:34:11.479Z,2.23
2023-04-11T05:36:37.864Z,2.30
2023-04-11T05:39:04.538Z,2.10
2023-04-11T05:41:30.955Z,1.90
2023-04-11T05:43:57.643Z,1.80
2023-04-11T05:46:24.330Z,2.00
2023-04-11T05:48:51.017Z,2.10
2023-04-11T05:51:17.389Z,2.17
2023-04-11T05:53:43.987Z,1.73
2023-04-11T05:56:12.415Z,1.87
2023-04-11T05:58:39.435Z,1.97
2023-04-11T06:01:07.265Z,1.93
2023-04-11T06:03:33.954Z,1.60
2023-04-11T06:06:00.645Z,1.70
2023-04-11T06:08:27.623Z,1.70
2023-04-11T06:10:53.996Z,2.50
2023-04-11T06:13:20.712Z,2.10
2023-04-11T06:15:47.264Z,2.10
2023-04-11T06:18:13.773Z,2.80
2023-04-11T06:20:40.161Z,2.60
2023-04-11T06:23:06.672Z,2.80
2023-04-11T06:25:33.070Z,3.00
2023-04-11T06:27:59.692Z,3.33
2023-04-11T06:30:26.199Z,4.07
2023-04-11T06:32:52.716Z,4.40
2023-04-11T06:35:20.418Z,4.40
2023-04-11T06:37:47.327Z,5.30
2023-04-11T06:40:13.781Z,4.67
2023-04-11T06:42:40.336Z,4.80
2023-04-11T06:45:07.119Z,4.77
2023-04-11T06:47:33.622Z,5.30
2023-04-11T06:50:00.196Z,4.33
2023-04-11T06:52:28.294Z,4.40
2023-04-11T06:54:54.840Z,4.27
2023-04-11T06:57:21.293Z,4.40
2023-04-11T06:59:48.024Z,3.80
2023-04-11T07:02:14.647Z,4.07
2023-04-11T07:04:41.272Z,3.63
2023-04-11T07:07:07.804Z,3.90
2023-04-11T07:09:34.251Z,3.67
2023-04-11T07:12:01.268Z,3.53
2023-04-11T07:14:27.635Z,3.70
2023-04-11T07:16:54.047Z,3.10
2023-04-11T07:19:20.438Z,3.27
2023-04-11T07:21:46.826Z,3.63
2023-04-11T07:24:13.319Z,3.60
2023-04-11T07:26:42.210Z,3.67
2023-04-11T07:29:11.600Z,3.00
2023-04-11T07:31:39.615Z,3.20
2023-04-11T07:34:06.433Z,3.27
2023-04-11T07:36:34.292Z,3.20
2023-04-11T07:39:00.764Z,2.87
2023-04-11T07:41:27.168Z,3.47
2023-04-11T07:43:53.693Z,3.50
2023-04-11T07:46:20.556Z,3.40
2023-04-11T07:48:47.068Z,3.67
2023-04-11T07:51:13.491Z,3.47
2023-04-11T07:53:40.044Z,3.23
2023-04-11T07:56:06.793Z,3.70
2023-04-11T07:58:33.282Z,3.90
2023-04-11T08:00:59.772Z,3.60
2023-04-11T08:03:27.299Z,3.10
2023-04-11T08:05:54.159Z,2.93
2023-04-11T08:08:20.564Z,3.20
2023-04-11T08:10:47.010Z,3.57
2023-04-11T08:13:13.696Z,3.20
2023-04-11T08:15:40.138Z,3.03
2023-04-11T08:18:06.553Z,3.07
2023-04-11T08:20:32.965Z,3.00
2023-04-11T08:23:00.518Z,2.50
2023-04-11T08:25:27.001Z,3.00
2023-04-11T08:27:53.445Z,2.63
2023-04-11T08:30:20.177Z,2.50
2023-04-11T08:32:46.811Z,2.47
2023-04-11T08:35:13.369Z,2.70
2023-04-11T08:37:39.802Z,2.80
2023-04-11T08:40:06.986Z,2.97
2023-04-11T08:42:34.124Z,2.60
2023-04-11T08:45:03.176Z,2.17
2023-04-11T08:47:30.030Z,1.70
2023-04-11T08:49:56.664Z,2.47
2023-04-11T08:52:24.358Z,1.50
2023-04-11T08:54:56.290Z,1.63
2023-04-11T08:57:27.427Z,1.60
2023-04-11T09:00:00.266Z,2.03
2023-04-11T09:02:27.621Z,2.20
2023-04-11T09:04:54.631Z,2.10
2023-04-11T09:07:22.265Z,1.97
2023-04-11T09:09:48.781Z,2.27
2023-04-11T09:12:15.776Z,2.03
2023-04-11T09:14:42.235Z,1.90
2023-04-11T09:17:16.851Z,1.80
2023-04-11T09:19:44.258Z,2.10
2023-04-11T09:22:12.704Z,0.90
2023-04-11T09:24:39.121Z,1.00
2023-04-11T09:54:53.430Z,1.70
2023-04-11T09:57:22.818Z,1.70
2023-04-11T09:59:49.763Z,1.53
2023-04-11T10:02:16.479Z,1.60
2023-04-11T10:04:43.256Z,1.40
2023-04-11T10:07:14.137Z,2.13
2023-04-11T10:35:00.135Z,1.70
2023-04-11T10:37:33.932Z,1.57
2023-04-11T10:40:09.752Z,1.50
2023-04-11T10:42:38.774Z,1.80
2023-04-11T10:45:24.529Z,1.60
2023-04-11T10:47:56.969Z,1.23
2023-04-11T10:50:23.602Z,1.27
2023-04-11T10:52:50.171Z,1.50
2023-04-11T10:55:17.985Z,1.20
2023-04-11T10:58:04.283Z,1.50
2023-04-11T11:01:21.170Z,2.33
2023-04-11T11:03:57.679Z,1.33
2023-04-11T11:06:24.658Z,1.83
2023-04-11T11:08:51.232Z,1.80
2023-04-11T11:11:19.272Z,1.70
2023-04-11T11:13:48.845Z,1.90
2023-04-11T11:16:17.161Z,1.87
2023-04-11T11:18:48.598Z,1.60
2023-04-11T11:21:24.775Z,1.60
2023-04-11T11:23:56.460Z,1.50
2023-04-11T11:26:24.833Z,1.20
2023-04-11T11:38:37.238Z,1.30
2023-04-11T11:41:04.162Z,1.10
2023-04-11T11:43:36.128Z,1.33
2023-04-11T11:48:36.258Z,1.90
2023-04-11T11:51:02.730Z,1.60
2023-04-11T11:53:29.132Z,1.00
2023-04-11T11:55:56.854Z,1.13
2023-04-11T11:58:23.341Z,1.20
2023-04-11T12:00:51.006Z,1.00
2023-04-11T12:03:21.123Z,1.30
2023-04-11T12:05:48.218Z,1.10
2023-04-11T12:08:14.842Z,1.40
2023-04-11T12:10:42.782Z,1.53
2023-04-11T12:13:20.717Z,1.33
2023-04-11T12:15:52.322Z,1.50
2023-04-11T12:18:23.484Z,1.50
2023-04-11T12:20:50.610Z,0.97
2023-04-11T12:23:17.917Z,1.10
2023-04-11T12:25:44.754Z,1.20
2023-04-11T12:28:11.445Z,1.10
2023-04-11T12:30:38.102Z,1.40
2023-04-11T12:33:04.799Z,0.90
2023-04-11T12:45:24.055Z,0.70
2023-04-11T12:47:50.933Z,0.70
2023-04-11T12:50:17.423Z,0.97
2023-04-11T12:52:43.805Z,1.20
2023-04-11T12:55:10.439Z,1.03
2023-04-11T12:57:36.913Z,1.00
2023-04-11T13:00:11.280Z,1.00
2023-04-11T13:02:43.121Z,0.63
2023-04-11T13:05:14.576Z,0.70
2023-04-11T13:07:42.058Z,0.50
2023-04-11T13:10:08.900Z,0.73
2023-04-11T13:12:41.009Z,0.60
2023-04-11T13:15:08.153Z,0.90
2023-04-11T13:17:34.701Z,0.60
2023-04-11T13:20:01.305Z,0.90
2023-04-11T13:22:27.768Z,0.97
2023-04-11T13:24:54.167Z,0.80
2023-04-11T13:27:22.082Z,1.00
2023-04-11T13:29:48.607Z,1.00
2023-04-11T13:32:15.258Z,0.60
2023-04-11T13:34:41.644Z,0.80
2023-04-11T13:37:08.066Z,0.80
2023-04-11T13:39:34.525Z,1.20
2023-04-11T13:42:00.903Z,0.80
2023-04-11T13:44:27.313Z,1.10
2023-04-11T13:46:53.953Z,0.97
2023-04-11T13:49:20.347Z,1.03
2023-04-11T13:51:46.760Z,0.90
2023-04-11T13:54:13.151Z,0.80
2023-04-11T13:56:39.623Z,0.90
2023-04-11T13:59:06.184Z,1.00
2023-04-11T14:01:32.732Z,0.90
2023-04-11T14:04:00.702Z,1.03
2023-04-11T14:06:27.517Z,1.23
2023-04-11T14:08:53.983Z,1.00
2023-04-11T14:11:21.004Z,1.10
2023-04-11T14:13:47.410Z,1.07
2023-04-11T14:16:13.832Z,1.70
2023-04-11T14:18:40.386Z,1.03
2023-04-11T14:21:07.120Z,1.10
2023-04-11T14:23:33.640Z,1.77
2023-04-11T14:26:00.048Z,1.23
2023-04-11T14:28:26.794Z,1.20
2023-04-11T14:30:53.814Z,1.23
2023-04-11T14:33:20.444Z,1.10
2023-04-11T14:35:47.122Z,1.03
2023-04-11T14:38:15.037Z,1.23
2023-04-11T14:40:41.703Z,0.90
2023-04-11T14:43:08.201Z,1.63
2023-04-11T14:45:34.658Z,1.30
2023-04-11T14:48:01.177Z,1.00
2023-04-11T14:50:28.903Z,0.60
2023-04-11T14:57:51.924Z,0.60
2023-04-11T15:00:21.864Z,0.50
2023-04-11T15:02:51.980Z,0.53
2023-04-11T15:05:19.515Z,0.60
2023-04-11T15:07:47.362Z,0.80
2023-04-11T15:10:14.351Z,0.80
2023-04-11T15:27:27.799Z,0.93
2023-04-11T15:56:48.552Z,1.37
2023-04-11T20:38:31.328Z,10.80
2023-04-11T20:40:57.837Z,13.30
2023-04-11T20:43:26.079Z,18.43
2023-04-11T20:45:53.269Z,18.60
2023-04-11T20:48:19.804Z,17.43
2023-04-11T20:50:47.235Z,18.50
2023-04-11T20:53:14.450Z,23.67
2023-04-11T20:55:41.166Z,28.03
2023-04-11T20:58:08.555Z,37.37
2023-04-11T21:00:35.940Z,30.93
2023-04-11T21:03:02.713Z,21.80
2023-04-11T21:05:29.614Z,20.47
2023-04-11T21:07:59.305Z,18.03
2023-04-11T21:10:25.797Z,15.37
2023-04-11T21:12:53.687Z,18.27
2023-04-11T21:15:20.842Z,17.90
2023-04-11T21:17:47.424Z,12.20
2023-04-11T21:20:20.508Z,9.73
2023-04-11T21:22:47.852Z,10.27
2023-04-11T21:25:14.760Z,13.70
2023-04-11T21:27:41.663Z,14.43
2023-04-11T21:30:09.534Z,14.93
2023-04-11T21:32:36.121Z,15.03
2023-04-11T21:35:05.992Z,15.40
2023-04-11T21:37:32.432Z,14.30
2023-04-11T21:39:58.873Z,12.63
2023-04-11T21:42:25.349Z,10.70
2023-04-11T21:44:51.722Z,9.47
2023-04-11T21:47:18.220Z,11.37
2023-04-11T21:49:46.786Z,10.57
2023-04-11T21:52:13.212Z,9.83
2023-04-11T21:54:42.028Z,8.37
2023-04-11T21:57:08.431Z,7.47
2023-04-11T21:59:35.249Z,6.67
2023-04-11T22:02:02.633Z,6.67
2023-04-11T22:04:29.390Z,5.67
2023-04-11T22:06:58.320Z,5.63
2023-04-11T22:09:24.799Z,5.70
2023-04-11T22:11:51.399Z,6.17
2023-04-11T22:14:18.371Z,4.87
2023-04-11T22:16:50.992Z,5.53
2023-04-11T22:19:18.055Z,5.60
